Abiquiu, NM

5:50 PM MDT on May 29, 2015 (GMT -0600)
Plaza Blanca | | Change Station
CLOSE
Current Station
Personal Weather Station
Location: Abiquiu, NM
Elevation: 6154 ft
Nearby Weather Stations

Elev 6154 ft 36.22 °N, 106.28 °W | Updated 25 seconds ago

Clear
Clear
78.1 °F
Feels Like 77 °F
N
6.9
Wind Variable Wind from WNW
Gusts 7.8 mph

Today
High -- | Low -- °F
--% Chance of Precip.
Yesterday
High -- | Low -- °F
Precip. -- in
5:50 AM 8:14 PM
Waxing Gibbous, 86% visible
Pressure 30.20 in
Visibility 10.0 miles
Clouds Clear
Heat Index 77 °F
Dew Point 23 °F
Humidity 13%
Rainfall 0.00 in
Snow Depth Not available.
UV 3 out of 12
Pollen 5.20 out of 12
Air Quality Not available.
Flu Activity Sporadic
METAR KLAM 292335Z AUTO 26012G16KT 10SM CLR 22/M07 A3020 RMK AO2 T02221070

More Conditions Fewer Conditions

Pressure 30.20 in
Visibility 10.0 miles
Clouds Clear
Heat Index 77 °F
Dew Point 23 °F
Humidity 13%
Rainfall 0.00 in
Snow Depth Not available.
UV 3 out of 12
Pollen 5.20 out of 12
Air Quality Not available.
Flu Activity Sporadic
METAR KLAM 292335Z AUTO 26012G16KT 10SM CLR 22/M07 A3020 RMK AO2 T02221070

More Conditions Fewer Conditions

Nowcast | as of 3:54 PM MDT on May 29, 2015

Through 6 PM MDT...scattered showers will continue to develop and move east over much of north central and central New Mexico. Rain will be light with little to no measurable rainfall. A rumble of thunder or two can not be ruled out.

×

10-Day Weather Forecast

Almanac

Astronomy

May. 29, 2015 Rise Set
Actual Time
Civil Twilight
Nautical Twilight
Astronomical Twilight
Moon
Length of Visible Light
Length of Day
Tomorrow will be .
, % of the Moon is Illuminated

Today's Extremes

State Highs State Lows

Community

WunderPhotos

Upload Photos

1,825,402 photos uploaded!

WunderBlogs® & News

Nearby

Air Quality

  Air Quality AQ Index Pollutant
Not available.

Snow Depth

Station Depth Elevation

Earthquake Activity

City Distance Mag. Time & Date
Minimum magnitude displayed is 2.5.

Coastal Water Temperatures

Place Temperature

Stations

Nearby Weather Stations

Station Location Temp. Windchill Dew Point Humidity Wind Precip. Elev Updated Type